Time;durP1;ratioP1;P1;durP2;ratioP2;P2;SDS_P1;SDS_P2;PMS_P1;PMS_P2;Temp;Humidity;BMP_temperature;BMP_pressure;BME280_temperature;BME280_humidity;BME280_pressure;Samples;Min_cycle;Max_cycle;Signal;HPM_P1;HPM_P2
2023/09/26 00:00:58;;;;;;;6.28;3.97;;;;;;;22.34;52.44;102293.41;4979133;28;20321;-41
2023/09/26 00:03:25;;;;;;;6.03;3.95;;;;;;;22.32;52.45;102293.56;4980269;28;20129;-41
2023/09/26 00:05:54;;;;;;;6.78;3.92;;;;;;;22.31;52.31;102285.56;4983380;28;20230;-41
2023/09/26 00:08:23;;;;;;;6.82;4.03;;;;;;;22.30;52.20;102287.44;4978600;28;20502;-41
2023/09/26 00:10:50;;;;;;;7.15;3.75;;;;;;;22.30;52.39;102292.00;4982469;28;20078;-42
2023/09/26 00:13:16;;;;;;;6.43;3.50;;;;;;;22.29;52.69;102290.28;4985646;28;20462;-42
2023/09/26 00:15:43;;;;;;;5.57;3.35;;;;;;;22.28;52.47;102296.69;4980686;28;20044;-40
2023/09/26 00:18:10;;;;;;;6.25;3.78;;;;;;;22.27;52.28;102297.69;4980872;28;20054;-42
2023/09/26 00:20:38;;;;;;;6.13;3.95;;;;;;;22.25;52.67;102303.25;4980650;28;20355;-40
2023/09/26 00:23:06;;;;;;;6.75;3.83;;;;;;;22.23;52.36;102289.03;4985047;28;20481;-42
2023/09/26 00:25:33;;;;;;;9.38;3.80;;;;;;;22.24;52.38;102288.03;4982672;28;20351;-42
2023/09/26 00:27:59;;;;;;;5.80;3.53;;;;;;;22.23;52.69;102289.03;4978746;28;20057;-41
2023/09/26 00:30:26;;;;;;;4.90;3.15;;;;;;;22.22;52.59;102281.91;4979756;28;20055;-41
2023/09/26 00:32:53;;;;;;;6.20;4.00;;;;;;;22.21;52.73;102290.19;4982070;28;20082;-40
2023/09/26 00:35:20;;;;;;;5.20;3.60;;;;;;;22.21;52.75;102300.97;4982054;28;20101;-40
2023/09/26 00:37:50;;;;;;;5.95;3.58;;;;;;;22.18;52.77;102292.16;4984620;28;20054;-41
2023/09/26 00:40:21;;;;;;;5.75;3.47;;;;;;;22.18;52.60;102289.44;4977494;28;20109;-41
2023/09/26 00:42:49;;;;;;;5.32;3.53;;;;;;;22.17;52.79;102285.06;4978289;28;20367;-40
2023/09/26 00:45:16;;;;;;;4.50;3.08;;;;;;;22.17;52.78;102289.59;4980161;28;20050;-41
2023/09/26 00:47:44;;;;;;;5.50;3.58;;;;;;;22.15;52.55;102299.69;4981674;28;20406;-41
2023/09/26 00:50:14;;;;;;;5.18;3.53;;;;;;;22.15;52.60;102302.38;4986351;28;20046;-40
2023/09/26 00:52:43;;;;;;;6.28;3.35;;;;;;;22.15;52.80;102300.56;4984532;28;20449;-41
2023/09/26 00:55:10;;;;;;;5.22;3.13;;;;;;;22.13;52.59;102305.25;4980819;28;20070;-40
2023/09/26 00:57:38;;;;;;;5.78;3.38;;;;;;;22.13;52.74;102294.44;4984835;28;20049;-42
2023/09/26 01:00:06;;;;;;;5.97;3.33;;;;;;;22.13;52.99;102291.75;4976723;28;20510;-41
2023/09/26 01:02:33;;;;;;;5.75;3.28;;;;;;;22.12;52.74;102298.13;4980191;28;20101;-41
2023/09/26 01:05:00;;;;;;;5.55;3.63;;;;;;;22.12;52.61;102294.56;4982601;28;20050;-41
2023/09/26 01:07:27;;;;;;;7.43;3.33;;;;;;;22.11;52.67;102300.94;4984347;28;20058;-42
2023/09/26 01:09:53;;;;;;;5.57;3.20;;;;;;;22.10;52.63;102293.84;4979283;28;20198;-40
2023/09/26 01:12:20;;;;;;;5.93;3.78;;;;;;;22.09;52.78;102309.22;4979932;28;20047;-42
2023/09/26 01:14:47;;;;;;;5.28;3.55;;;;;;;22.10;52.78;102307.34;4978581;28;20039;-42
2023/09/26 01:17:13;;;;;;;5.55;3.70;;;;;;;22.09;52.63;102300.25;4976250;28;20149;-41
2023/09/26 01:19:40;;;;;;;7.40;3.42;;;;;;;22.08;52.88;102302.09;4980437;28;20470;-41
2023/09/26 01:22:07;;;;;;;5.53;3.25;;;;;;;22.08;52.96;102306.66;4978710;28;20391;-39
2023/09/26 01:24:35;;;;;;;5.07;3.08;;;;;;;22.07;52.90;102305.81;4979764;28;20414;-41
2023/09/26 01:27:01;;;;;;;5.32;3.13;;;;;;;22.08;52.99;102306.66;4983702;28;20081;-39
2023/09/26 01:29:28;;;;;;;4.97;3.05;;;;;;;22.07;52.66;102305.81;4988574;28;20109;-40
2023/09/26 01:31:54;;;;;;;5.25;3.10;;;;;;;22.07;52.77;102296.84;4982348;28;20058;-39
2023/09/26 01:34:21;;;;;;;4.97;2.88;;;;;;;22.06;52.68;102295.97;4983401;28;20104;-40
2023/09/26 01:36:48;;;;;;;4.65;2.97;;;;;;;22.06;52.87;102285.19;4980042;28;20406;-40
2023/09/26 01:39:14;;;;;;;4.95;2.92;;;;;;;22.05;52.63;102291.59;4983795;28;20058;-41
2023/09/26 01:41:41;;;;;;;5.13;2.95;;;;;;;22.05;52.72;102282.66;4982825;28;20142;-40
2023/09/26 01:44:08;;;;;;;5.18;2.80;;;;;;;22.05;52.78;102285.34;4986241;28;20113;-40
2023/09/26 01:46:35;;;;;;;4.95;2.95;;;;;;;22.03;52.92;102282.81;4983939;28;20046;-40
2023/09/26 01:49:02;;;;;;;4.55;2.65;;;;;;;22.02;52.77;102281.06;4984961;28;20339;-39
2023/09/26 01:51:28;;;;;;;4.68;2.97;;;;;;;22.03;52.75;102272.00;4983493;28;20054;-41
2023/09/26 01:53:55;;;;;;;4.00;2.80;;;;;;;22.02;52.82;102275.66;4980099;28;20050;-39
2023/09/26 01:56:21;;;;;;;5.80;2.50;;;;;;;22.02;52.72;102277.53;4982978;28;20047;-41
2023/09/26 01:58:48;;;;;;;3.72;2.75;;;;;;;22.01;52.57;102268.56;4983875;28;20100;-41
2023/09/26 02:01:15;;;;;;;4.07;2.65;;;;;;;22.01;52.60;102276.69;4986189;28;20427;-41
2023/09/26 02:03:42;;;;;;;4.60;2.92;;;;;;;22.00;53.20;102269.59;4987106;28;20043;-40
2023/09/26 02:06:08;;;;;;;5.47;3.35;;;;;;;22.01;52.78;102262.31;4981592;28;20077;-40
2023/09/26 02:08:35;;;;;;;5.40;2.90;;;;;;;22.00;52.77;102253.38;5011380;28;20042;-41
2023/09/26 02:11:01;;;;;;;3.83;2.80;;;;;;;22.00;52.96;102257.94;4980567;28;20051;-41
2023/09/26 02:13:28;;;;;;;5.00;2.88;;;;;;;21.98;52.87;102247.25;4983846;28;20406;-42
2023/09/26 02:15:55;;;;;;;4.68;2.75;;;;;;;21.98;52.54;102246.41;4979499;28;20506;-41
2023/09/26 02:18:21;;;;;;;4.47;2.88;;;;;;;21.98;52.69;102239.16;4984285;28;20073;-41
2023/09/26 02:20:48;;;;;;;4.65;2.88;;;;;;;21.97;52.39;102229.38;5010966;28;20058;-41
2023/09/26 02:23:15;;;;;;;5.03;3.05;;;;;;;21.97;52.88;102244.72;4980703;28;20050;-40
2023/09/26 02:25:50;;;;;;;3.75;2.55;;;;;;;21.96;52.88;102251.13;5013897;28;20046;-40
2023/09/26 02:28:18;;;;;;;4.75;3.03;;;;;;;21.95;52.66;102244.88;4979792;28;20331;-41
2023/09/26 02:30:44;;;;;;;4.22;2.97;;;;;;;21.96;52.82;102237.63;4980412;28;20359;-40
2023/09/26 02:33:11;;;;;;;3.97;2.70;;;;;;;21.94;52.82;102241.28;4987569;28;20129;-41
2023/09/26 02:35:38;;;;;;;3.50;2.75;;;;;;;21.94;52.74;102240.44;4987609;28;20105;-40
2023/09/26 02:38:04;;;;;;;5.03;2.90;;;;;;;21.93;52.57;102236.06;4983349;28;20054;-41
2023/09/26 02:40:31;;;;;;;3.80;2.88;;;;;;;21.93;52.73;102238.75;4977566;28;20043;-40
2023/09/26 02:42:57;;;;;;;4.55;2.50;;;;;;;21.93;52.68;102233.34;4981774;28;20108;-41
2023/09/26 02:45:26;;;;;;;4.78;2.85;;;;;;;21.92;52.78;102227.09;4984785;28;20047;-40
2023/09/26 02:47:52;;;;;;;3.45;2.47;;;;;;;21.91;53.09;102225.41;4987085;28;20087;-41
2023/09/26 02:50:21;;;;;;;4.32;2.63;;;;;;;21.92;52.94;102223.56;4986890;28;20461;-41
2023/09/26 02:52:47;;;;;;;4.47;2.70;;;;;;;21.91;52.86;102221.88;4987638;28;20065;-40
2023/09/26 02:55:14;;;;;;;3.47;2.55;;;;;;;21.90;52.56;102218.28;4981442;28;20077;-41
2023/09/26 02:57:40;;;;;;;5.43;2.75;;;;;;;21.90;52.84;102217.44;4988443;28;20130;-40
2023/09/26 03:00:16;;;;;;;3.42;2.40;;;;;;;21.89;52.94;102221.16;5017055;28;20062;-41
2023/09/26 03:02:45;;;;;;;3.08;2.13;;;;;;;21.89;52.81;102229.25;4988671;28;20187;-40
2023/09/26 03:05:13;;;;;;;5.15;2.20;;;;;;;21.88;52.69;102222.16;4990934;28;20046;-39
2023/09/26 03:07:40;;;;;;;5.03;3.00;;;;;;;21.86;52.87;102224.13;4988005;28;20073;-41
2023/09/26 03:10:07;;;;;;;4.25;2.63;;;;;;;21.86;52.75;102224.13;4988823;28;20054;-40
2023/09/26 03:12:34;;;;;;;4.43;2.88;;;;;;;21.85;52.96;102214.34;4985191;28;20043;-40
2023/09/26 03:15:02;;;;;;;3.60;2.28;;;;;;;21.84;52.84;102226.13;4984780;28;20450;-40
2023/09/26 03:17:29;;;;;;;3.90;2.80;;;;;;;21.83;53.03;102222.59;4986383;28;20058;-41
2023/09/26 03:19:55;;;;;;;4.65;2.50;;;;;;;21.83;53.03;102222.59;4987952;28;20128;-40
2023/09/26 03:22:22;;;;;;;3.75;2.60;;;;;;;21.83;53.01;102219.91;5020230;28;20046;-41
2023/09/26 03:24:49;;;;;;;3.80;2.60;;;;;;;21.83;52.90;102221.72;4986767;28;20390;-40
2023/09/26 03:27:15;;;;;;;3.20;2.40;;;;;;;21.83;52.61;102219.00;4985304;28;20051;-41
2023/09/26 03:29:42;;;;;;;3.83;2.80;;;;;;;21.82;53.06;102214.63;4980920;28;20069;-41
2023/09/26 03:32:09;;;;;;;2.72;2.03;;;;;;;21.82;52.95;102214.63;4983739;28;20062;-40
2023/09/26 03:34:35;;;;;;;4.65;2.50;;;;;;;21.81;52.81;102215.63;4983284;28;20441;-40
2023/09/26 03:37:02;;;;;;;4.88;2.40;;;;;;;21.80;52.71;102211.22;4989035;28;20544;-40
2023/09/26 03:39:28;;;;;;;3.05;2.35;;;;;;;21.80;52.97;102203.13;4984258;28;20450;-40
2023/09/26 03:41:55;;;;;;;3.50;2.65;;;;;;;21.80;52.51;102205.84;4984762;28;20112;-40
2023/09/26 03:44:22;;;;;;;2.92;2.20;;;;;;;21.79;52.88;102207.69;4985144;28;20445;-41
2023/09/26 03:46:48;;;;;;;3.55;2.30;;;;;;;21.79;52.64;102204.09;4980750;28;20113;-40
2023/09/26 03:49:15;;;;;;;3.15;2.33;;;;;;;21.78;52.84;102211.34;4984847;28;20082;-40
2023/09/26 03:51:41;;;;;;;2.53;2.22;;;;;;;21.78;52.95;102202.41;4985384;28;20043;-40
2023/09/26 03:54:08;;;;;;;3.38;2.40;;;;;;;21.78;53.15;102202.41;4984645;28;20054;-41
2023/09/26 03:56:34;;;;;;;4.55;2.60;;;;;;;21.77;52.87;102190.78;4986844;28;20507;-41
2023/09/26 03:59:01;;;;;;;3.25;2.20;;;;;;;21.76;52.87;102189.06;4986751;28;20109;-40
2023/09/26 04:01:28;;;;;;;3.38;2.40;;;;;;;21.78;52.88;102191.63;4984488;28;20050;-40
2023/09/26 04:03:54;;;;;;;3.30;2.08;;;;;;;21.77;52.77;102189.94;4983704;28;20137;-41
2023/09/26 04:06:21;;;;;;;3.75;2.13;;;;;;;21.75;52.86;102184.69;4987599;28;20085;-40
2023/09/26 04:08:48;;;;;;;3.22;2.22;;;;;;;21.75;52.89;102178.41;4983251;28;20112;-40
2023/09/26 04:11:16;;;;;;;3.17;2.25;;;;;;;21.76;53.03;102190.94;4988410;28;20391;-40
2023/09/26 04:13:43;;;;;;;3.67;2.40;;;;;;;21.75;52.92;102186.50;4987761;28;20056;-41
2023/09/26 04:16:10;;;;;;;3.28;1.90;;;;;;;21.74;53.00;102182.97;4986114;28;20474;-40
2023/09/26 04:18:37;;;;;;;4.85;2.83;;;;;;;21.74;52.83;102182.97;4980515;28;20058;-40
2023/09/26 04:21:06;;;;;;;5.00;2.45;;;;;;;21.74;52.75;102188.34;4983949;28;20054;-41
2023/09/26 04:23:38;;;;;;;3.25;2.40;;;;;;;21.74;52.83;102182.97;4981829;28;20331;-40
2023/09/26 04:26:15;;;;;;;3.55;2.38;;;;;;;21.73;52.91;102177.72;4975744;28;20055;-41
2023/09/26 04:28:44;;;;;;;3.80;2.25;;;;;;;21.73;52.56;102173.16;4977831;28;20046;-41
2023/09/26 04:31:16;;;;;;;3.75;2.20;;;;;;;21.73;52.74;102175.88;4980944;28;20062;-40
2023/09/26 04:33:45;;;;;;;5.40;2.30;;;;;;;21.73;52.81;102177.72;4981928;28;20042;-41
2023/09/26 04:36:11;;;;;;;4.10;2.80;;;;;;;21.72;52.79;102173.31;4976432;28;20336;-41
2023/09/26 04:38:38;;;;;;;12.93;4.57;;;;;;;21.72;52.90;102178.72;4976915;28;20053;-41
2023/09/26 04:41:05;;;;;;;18.42;7.32;;;;;;;21.70;52.95;102176.16;5014791;28;20062;-41
2023/09/26 04:43:32;;;;;;;18.45;7.18;;;;;;;21.71;53.33;102171.59;4981632;28;20046;-41
2023/09/26 04:45:59;;;;;;;17.67;6.75;;;;;;;21.71;52.78;102177.00;4985925;28;20050;-42
2023/09/26 04:48:26;;;;;;;17.52;6.95;;;;;;;21.69;53.11;102160.97;4983599;28;20129;-41
2023/09/26 04:50:54;;;;;;;18.67;7.35;;;;;;;21.69;53.03;102151.00;4982713;28;20113;-41
2023/09/26 04:53:22;;;;;;;18.95;6.90;;;;;;;21.68;52.88;102154.72;4981308;28;20049;-40
2023/09/26 04:55:48;;;;;;;17.05;7.22;;;;;;;21.69;52.95;102163.66;4983742;28;20129;-41
2023/09/26 04:58:15;;;;;;;18.85;6.97;;;;;;;21.67;53.05;102160.28;4979708;28;20054;-41
2023/09/26 05:00:42;;;;;;;14.65;6.55;;;;;;;21.67;52.83;102168.38;4981762;28;20054;-40
2023/09/26 05:03:08;;;;;;;17.00;6.88;;;;;;;21.67;52.98;102165.66;4979713;28;20109;-40
2023/09/26 05:05:35;;;;;;;14.27;6.78;;;;;;;21.67;53.16;102165.66;4988042;28;20511;-41
2023/09/26 05:08:02;;;;;;;11.15;5.88;;;;;;;21.66;52.88;102167.50;4984111;28;20104;-41
2023/09/26 05:10:28;;;;;;;15.25;7.35;;;;;;;21.65;52.80;102168.50;4983093;28;20548;-40
2023/09/26 05:12:55;;;;;;;16.60;7.10;;;;;;;21.65;52.87;102168.50;4979726;28;20142;-41
2023/09/26 05:15:23;;;;;;;15.38;6.32;;;;;;;21.65;52.71;102168.50;4981205;28;20057;-40
2023/09/26 05:17:54;;;;;;;15.30;6.80;;;;;;;21.65;52.63;102175.75;4978996;28;20510;-41
2023/09/26 05:20:21;;;;;;;13.32;6.75;;;;;;;21.63;52.90;102175.91;4987012;28;20247;-41
2023/09/26 05:22:48;;;;;;;14.38;5.60;;;;;;;21.63;52.75;102170.50;4984370;28;20058;-40
2023/09/26 05:25:15;;;;;;;15.98;6.57;;;;;;;21.63;52.66;102175.91;4982051;28;20109;-41
2023/09/26 05:27:43;;;;;;;12.13;6.18;;;;;;;21.61;52.98;102180.56;4980324;28;20446;-41
2023/09/26 05:30:12;;;;;;;13.18;6.68;;;;;;;21.63;52.95;102183.16;4980754;28;20043;-40
2023/09/26 05:32:40;;;;;;;11.23;6.13;;;;;;;21.61;52.58;102185.13;4980835;28;20077;-40
2023/09/26 05:35:08;;;;;;;12.30;6.30;;;;;;;21.61;52.72;102180.56;4976478;28;20054;-40
2023/09/26 05:37:36;;;;;;;11.60;5.82;;;;;;;21.61;52.61;102177.88;4986203;28;20133;-41
2023/09/26 05:40:06;;;;;;;13.45;5.88;;;;;;;21.60;52.95;102178.88;4987393;28;20422;-41
2023/09/26 05:42:34;;;;;;;12.60;5.90;;;;;;;21.61;52.70;102179.72;4982997;28;20047;-40
2023/09/26 05:45:03;;;;;;;11.57;6.30;;;;;;;21.60;52.70;102175.34;4980591;28;20046;-40
2023/09/26 05:47:29;;;;;;;11.25;6.47;;;;;;;21.61;52.86;102182.44;4981370;28;20394;-40
2023/09/26 05:49:56;;;;;;;11.23;6.18;;;;;;;21.60;52.85;102178.88;4979658;28;20046;-41
2023/09/26 05:52:23;;;;;;;11.80;5.75;;;;;;;21.61;52.70;102185.13;4978531;28;20435;-41
2023/09/26 05:54:50;;;;;;;10.57;6.25;;;;;;;21.61;52.91;102180.56;4975969;28;20078;-40
2023/09/26 05:57:18;;;;;;;11.02;5.85;;;;;;;21.61;52.52;102177.88;4980337;28;20390;-39
2023/09/26 05:59:44;;;;;;;11.98;6.20;;;;;;;21.61;52.53;102175.19;4979805;28;20144;-39
2023/09/26 06:02:13;;;;;;;9.57;5.97;;;;;;;21.60;52.77;102173.47;4979571;28;20569;-39
2023/09/26 06:04:43;;;;;;;10.50;5.75;;;;;;;21.61;52.58;102163.53;4980057;28;20077;-41
2023/09/26 06:07:10;;;;;;;12.18;5.50;;;;;;;21.62;52.77;102166.09;4976158;28;20054;-41
2023/09/26 06:09:39;;;;;;;12.73;6.45;;;;;;;21.61;52.62;102156.28;4976579;28;20074;-41
2023/09/26 06:12:23;;;;;;;10.30;5.70;;;;;;;21.62;52.59;102158.00;4984616;28;20073;-42
2023/09/26 06:14:51;;;;;;;10.45;5.55;;;;;;;21.60;52.61;102157.28;4984558;28;20054;-40
2023/09/26 06:17:17;;;;;;;12.93;5.97;;;;;;;21.61;52.62;102167.09;4986859;28;20051;-41
2023/09/26 06:19:46;;;;;;;16.08;7.00;;;;;;;21.62;52.57;102173.31;4985683;28;20046;-41
2023/09/26 06:22:14;;;;;;;10.85;6.13;;;;;;;21.62;52.42;102168.78;4984542;28;20084;-41
2023/09/26 06:24:40;;;;;;;8.77;5.18;;;;;;;21.62;52.54;102168.78;4986670;28;20137;-41
2023/09/26 06:27:07;;;;;;;9.98;5.85;;;;;;;21.63;52.65;102170.50;4984634;28;20051;-40
2023/09/26 06:29:40;;;;;;;10.32;5.30;;;;;;;21.62;52.59;102171.47;4988557;28;20058;-40
2023/09/26 06:32:09;;;;;;;10.80;5.93;;;;;;;21.64;52.74;102172.19;4983398;28;20047;-40
2023/09/26 06:34:39;;;;;;;12.57;5.72;;;;;;;21.65;52.51;102173.91;4986117;28;20077;-39
2023/09/26 06:37:06;;;;;;;10.65;5.75;;;;;;;21.65;52.38;102170.34;4984424;28;20312;-37
2023/09/26 06:39:33;;;;;;;9.80;5.53;;;;;;;21.68;52.50;102178.16;4987059;28;20054;-41
2023/09/26 06:41:59;;;;;;;10.43;5.70;;;;;;;21.67;52.35;102173.78;4985833;28;20136;-40
2023/09/26 06:44:28;;;;;;;13.00;5.55;;;;;;;21.68;52.30;102173.59;4976776;28;20109;-41
2023/09/26 06:46:55;;;;;;;7.80;4.93;;;;;;;21.68;52.34;102170.91;5017008;28;20413;-41
2023/09/26 06:49:22;;;;;;;8.23;4.78;;;;;;;21.68;52.32;102173.59;4983544;28;20042;-39
2023/09/26 06:51:49;;;;;;;9.55;5.00;;;;;;;21.69;52.27;102172.59;5000700;28;20052;-41
2023/09/26 06:54:15;;;;;;;9.38;5.70;;;;;;;21.69;52.28;102164.50;4980688;28;20050;-40
2023/09/26 06:56:42;;;;;;;9.70;5.15;;;;;;;21.70;52.13;102170.75;4982803;28;20046;-40
2023/09/26 06:59:09;;;;;;;9.27;5.07;;;;;;;21.71;52.08;102166.19;4988284;28;20082;-41
2023/09/26 07:01:36;;;;;;;8.70;5.18;;;;;;;21.71;51.91;102169.78;4987510;28;20046;-40
2023/09/26 07:04:03;;;;;;;10.20;5.28;;;;;;;21.72;52.26;102167.94;5015531;28;20042;-39
2023/09/26 07:06:30;;;;;;;8.05;4.85;;;;;;;21.72;52.35;102159.84;4981898;28;20082;-40
2023/09/26 07:08:58;;;;;;;9.57;5.05;;;;;;;21.73;52.18;102162.38;4981215;28;20062;-40
2023/09/26 07:11:26;;;;;;;8.25;4.88;;;;;;;21.74;51.87;102160.53;4978141;28;20065;-41
2023/09/26 07:13:53;;;;;;;7.78;4.45;;;;;;;21.75;52.36;102164.91;4980406;28;20306;-41
2023/09/26 07:16:19;;;;;;;9.02;5.05;;;;;;;21.75;52.20;102160.41;4981274;28;20144;-41
2023/09/26 07:18:46;;;;;;;9.98;5.25;;;;;;;21.76;51.86;102154.00;4989913;28;20062;-41
2023/09/26 07:21:13;;;;;;;8.50;5.20;;;;;;;21.78;52.12;102153.84;4984757;28;20042;-40
2023/09/26 07:23:39;;;;;;;8.25;4.88;;;;;;;21.78;52.25;102149.28;4987134;28;20560;-40
2023/09/26 07:26:08;;;;;;;8.98;5.20;;;;;;;21.79;52.03;102139.34;4983356;28;20143;-42
2023/09/26 07:28:37;;;;;;;9.93;5.22;;;;;;;21.80;51.97;102151.84;4980231;28;20518;-40
2023/09/26 07:31:04;;;;;;;8.48;5.40;;;;;;;21.80;52.02;102144.59;4982076;28;20069;-40
2023/09/26 07:33:32;;;;;;;7.80;5.07;;;;;;;21.83;52.13;102140.75;4982802;28;20133;-40
2023/09/26 07:35:58;;;;;;;8.20;4.93;;;;;;;21.82;51.90;102142.59;5015645;28;20042;-41
2023/09/26 07:38:25;;;;;;;9.75;5.15;;;;;;;21.83;51.96;102151.53;4983328;28;20053;-41
2023/09/26 07:40:52;;;;;;;8.63;4.60;;;;;;;21.83;51.99;102148.84;5009958;28;20050;-41
2023/09/26 07:43:18;;;;;;;8.65;5.13;;;;;;;21.84;51.68;102142.47;4981841;28;20049;-40
2023/09/26 07:45:45;;;;;;;8.43;4.95;;;;;;;21.84;51.88;102148.72;4978895;28;20374;-41
2023/09/26 07:48:12;;;;;;;8.15;5.20;;;;;;;21.84;51.63;102154.09;4979088;28;20113;-40
2023/09/26 07:50:39;;;;;;;10.13;5.15;;;;;;;21.86;51.90;102152.09;4987474;28;20053;-42
2023/09/26 07:53:06;;;;;;;9.73;5.28;;;;;;;21.86;52.04;102154.78;4989511;28;20050;-40
2023/09/26 07:55:33;;;;;;;9.73;5.22;;;;;;;21.86;51.70;102153.94;4984837;28;20054;-39
2023/09/26 07:57:59;;;;;;;8.88;5.15;;;;;;;21.89;51.75;102153.66;4983949;28;20054;-40
2023/09/26 08:00:27;;;;;;;10.32;4.68;;;;;;;21.89;51.80;102153.66;4980220;28;20054;-41
2023/09/26 08:02:53;;;;;;;9.00;4.88;;;;;;;21.90;52.11;102158.91;4984310;28;20054;-41
2023/09/26 08:05:20;;;;;;;7.93;4.78;;;;;;;21.92;51.79;102158.78;4984755;28;20134;-41
2023/09/26 08:07:48;;;;;;;7.70;4.50;;;;;;;21.92;51.64;102150.69;4982730;28;20383;-42
2023/09/26 08:10:14;;;;;;;9.90;4.70;;;;;;;21.93;51.26;102153.22;4985250;28;20069;-41
2023/09/26 08:12:41;;;;;;;6.40;4.45;;;;;;;21.94;51.58;102154.06;4985673;28;20042;-41
2023/09/26 08:15:09;;;;;;;6.10;4.30;;;;;;;21.95;51.72;102153.09;4988108;28;20085;-41
2023/09/26 08:17:35;;;;;;;8.23;4.80;;;;;;;21.96;51.67;102156.63;4981559;28;20625;-42
2023/09/26 08:20:03;;;;;;;9.52;5.13;;;;;;;21.97;51.84;102151.06;4984431;28;20073;-42
2023/09/26 08:22:29;;;;;;;7.85;4.43;;;;;;;21.98;51.70;102150.06;4984353;28;20120;-42
2023/09/26 08:24:56;;;;;;;7.30;4.40;;;;;;;21.99;51.55;102149.09;4982840;28;20092;-42
2023/09/26 08:27:24;;;;;;;7.07;4.63;;;;;;;22.01;51.48;102157.03;4989656;28;20462;-41
2023/09/26 08:29:51;;;;;;;7.05;4.32;;;;;;;22.02;51.47;102156.03;4988195;28;20061;-40
2023/09/26 08:32:17;;;;;;;8.80;4.57;;;;;;;22.04;51.67;102148.66;4982309;28;20059;-42
2023/09/26 08:34:44;;;;;;;8.85;5.10;;;;;;;22.04;51.44;102144.09;4983000;28;20393;-41
2023/09/26 08:37:12;;;;;;;7.70;4.70;;;;;;;22.05;51.67;102140.38;4982913;28;20387;-41
2023/09/26 08:39:38;;;;;;;8.25;5.05;;;;;;;22.07;51.55;102143.81;4986985;28;20059;-42
2023/09/26 08:42:07;;;;;;;8.68;5.00;;;;;;;22.08;51.62;102145.50;4983694;28;20078;-42
2023/09/26 08:44:33;;;;;;;8.38;4.72;;;;;;;22.09;51.54;102149.03;5013876;28;20072;-41
2023/09/26 08:47:02;;;;;;;7.28;4.68;;;;;;;22.11;51.37;102147.03;4980515;28;20070;-40
2023/09/26 08:49:29;;;;;;;8.00;4.35;;;;;;;22.11;51.20;102138.94;4982080;28;20082;-42
2023/09/26 08:51:56;;;;;;;7.65;4.45;;;;;;;22.12;51.48;102149.59;4983641;28;20061;-41
2023/09/26 08:54:23;;;;;;;7.25;4.03;;;;;;;22.14;51.46;102144.06;4984963;28;20356;-42
2023/09/26 08:56:50;;;;;;;8.27;4.63;;;;;;;22.15;51.55;102138.53;4982060;28;20042;-40
2023/09/26 08:59:19;;;;;;;5.55;4.47;;;;;;;22.16;51.52;102123.19;4983180;28;20050;-43
2023/09/26 09:01:46;;;;;;;8.77;5.07;;;;;;;22.17;51.46;102131.13;4985714;28;20388;-42
2023/09/26 09:04:13;;;;;;;7.45;4.85;;;;;;;22.21;51.53;102136.22;4982652;28;20054;-42
2023/09/26 09:06:39;;;;;;;8.50;5.55;;;;;;;22.21;51.45;102134.38;4982570;28;20522;-42
2023/09/26 09:09:10;;;;;;;7.90;5.35;;;;;;;22.23;51.36;102127.00;4982992;28;20067;-41
2023/09/26 09:11:37;;;;;;;6.85;4.47;;;;;;;22.25;51.51;102135.78;4981887;28;20112;-42
2023/09/26 09:14:05;;;;;;;6.80;4.13;;;;;;;22.26;51.57;102136.63;5013755;28;20552;-41
2023/09/26 09:16:31;;;;;;;7.07;4.70;;;;;;;22.28;51.43;102134.63;4984759;28;20347;-42
2023/09/26 09:18:58;;;;;;;7.68;4.60;;;;;;;22.28;51.64;102135.47;4985089;28;20052;-42
2023/09/26 09:21:30;;;;;;;6.80;4.28;;;;;;;22.30;51.43;102127.22;4986246;28;20343;-42
2023/09/26 09:23:59;;;;;;;7.05;4.47;;;;;;;22.32;51.53;102119.81;4985024;28;20138;-41
2023/09/26 09:26:31;;;;;;;5.43;3.78;;;;;;;22.32;51.60;102117.13;4982785;28;20050;-42
2023/09/26 09:29:21;;;;;;;5.85;4.45;;;;;;;22.33;51.57;102110.72;4985480;28;20390;-42
2023/09/26 09:31:48;;;;;;;7.85;4.47;;;;;;;22.35;51.42;102116.81;4988147;28;20058;-42
2023/09/26 09:34:15;;;;;;;7.32;4.15;;;;;;;22.34;51.55;102112.41;4980717;28;20074;-41
2023/09/26 09:36:44;;;;;;;6.22;4.05;;;;;;;22.35;51.32;102123.09;4976239;28;20065;-41
2023/09/26 09:39:12;;;;;;;7.07;4.00;;;;;;;22.35;51.44;102128.47;4981166;28;20050;-41
2023/09/26 09:41:39;;;;;;;6.55;4.25;;;;;;;22.37;51.46;102126.47;4983334;28;20487;-41
2023/09/26 09:44:06;;;;;;;6.05;4.05;;;;;;;22.37;51.28;102121.06;4980953;28;20137;-41
2023/09/26 09:46:38;;;;;;;7.07;4.25;;;;;;;22.38;51.15;102113.81;4979445;28;20046;-42
2023/09/26 09:49:12;;;;;;;6.28;3.45;;;;;;;22.38;51.24;102114.66;4979111;28;20047;-42
2023/09/26 09:51:45;;;;;;;6.28;4.07;;;;;;;22.39;51.15;102132.59;4982776;28;20058;-41
2023/09/26 09:54:13;;;;;;;5.10;3.20;;;;;;;22.40;51.15;102134.28;4982061;28;20060;-42
2023/09/26 09:56:46;;;;;;;8.20;4.38;;;;;;;22.41;51.13;102132.41;4983849;28;20077;-42
2023/09/26 09:59:16;;;;;;;10.27;4.55;;;;;;;22.41;51.28;102129.72;4982186;28;20047;-42
2023/09/26 10:01:49;;;;;;;6.45;4.55;;;;;;;22.42;51.18;102126.00;4984355;28;20124;-43
2023/09/26 10:04:17;;;;;;;6.90;4.10;;;;;;;22.42;51.25;102118.75;4985910;28;20057;-42
2023/09/26 10:06:43;;;;;;;5.32;3.60;;;;;;;22.44;51.50;102126.72;4984102;28;20067;-42
2023/09/26 10:09:12;;;;;;;6.72;3.83;;;;;;;22.46;51.22;102122.00;4980799;28;20133;-43
2023/09/26 10:11:40;;;;;;;5.97;3.72;;;;;;;22.47;51.37;102104.78;4981460;28;20061;-42
2023/09/26 10:14:12;;;;;;;6.07;3.85;;;;;;;22.49;51.00;102105.50;4980994;28;20408;-42
2023/09/26 10:16:38;;;;;;;6.05;3.95;;;;;;;22.51;50.83;102108.03;4980506;28;20050;-43
2023/09/26 10:19:05;;;;;;;6.63;3.75;;;;;;;22.52;51.18;102117.84;4977543;28;20078;-41
2023/09/26 10:21:32;;;;;;;5.63;3.70;;;;;;;22.54;51.18;102116.69;4984476;28;20122;-42
2023/09/26 10:24:05;;;;;;;4.90;3.90;;;;;;;22.55;51.10;102115.69;4987245;28;20653;-41
2023/09/26 10:26:53;;;;;;;6.43;3.70;;;;;;;22.56;51.18;102119.25;4985129;28;20086;-42
2023/09/26 10:29:28;;;;;;;5.00;3.63;;;;;;;22.59;51.21;102116.22;4979062;28;20062;-41
2023/09/26 10:32:04;;;;;;;5.85;3.47;;;;;;;22.60;51.05;102107.97;4980411;28;20105;-41
2023/09/26 10:34:36;;;;;;;6.45;4.20;;;;;;;22.63;50.84;102109.50;4982337;28;20051;-42
2023/09/26 10:37:07;;;;;;;8.35;3.85;;;;;;;22.66;51.10;102107.34;4982139;28;20478;-42
2023/09/26 10:39:34;;;;;;;5.60;3.60;;;;;;;22.67;50.74;102109.06;4984576;28;20042;-41
2023/09/26 10:42:23;;;;;;;4.78;3.25;;;;;;;22.69;51.06;102110.75;4982327;28;20042;-42
2023/09/26 10:44:52;;;;;;;7.32;4.15;;;;;;;22.73;50.63;102106.75;4983667;28;20128;-41
2023/09/26 10:47:22;;;;;;;7.55;3.97;;;;;;;22.74;50.99;102101.19;4981972;28;20089;-42
2023/09/26 10:49:49;;;;;;;6.38;3.30;;;;;;;22.77;50.79;102100.03;4979187;28;20070;-42
2023/09/26 10:52:16;;;;;;;6.57;4.03;;;;;;;22.78;50.69;102093.63;4976783;28;20050;-42
2023/09/26 10:54:43;;;;;;;5.22;3.28;;;;;;;22.79;51.07;102088.03;4977353;28;20055;-41
2023/09/26 10:57:20;;;;;;;4.90;3.42;;;;;;;22.81;50.70;102093.31;4986277;28;20070;-42
2023/09/26 10:59:49;;;;;;;5.47;2.97;;;;;;;22.82;50.40;102085.03;4983639;28;20054;-42
2023/09/26 11:02:15;;;;;;;5.95;3.10;;;;;;;22.84;50.76;102080.34;4979593;28;20571;-42
2023/09/26 11:04:43;;;;;;;5.18;3.70;;;;;;;22.87;50.41;102079.16;4979058;28;20074;-42
2023/09/26 11:07:10;;;;;;;4.40;3.42;;;;;;;22.88;50.80;102084.44;4980861;28;20115;-42
2023/09/26 11:09:41;;;;;;;4.95;3.47;;;;;;;22.90;50.57;102084.25;4988301;28;20054;-42
2023/09/26 11:12:08;;;;;;;4.47;2.90;;;;;;;22.91;50.71;102091.38;4986171;28;20360;-42
2023/09/26 11:14:35;;;;;;;5.60;3.33;;;;;;;22.94;50.80;102087.53;4984148;28;20042;-42
2023/09/26 11:17:04;;;;;;;5.97;3.30;;;;;;;22.94;50.21;102082.97;4986223;28;20446;-42
2023/09/26 11:19:31;;;;;;;4.20;3.10;;;;;;;22.96;50.88;102082.84;4985444;28;20054;-42
2023/09/26 11:21:58;;;;;;;4.78;3.30;;;;;;;22.97;50.99;102076.41;4982801;28;20046;-43
2023/09/26 11:24:32;;;;;;;5.75;3.03;;;;;;;22.98;50.44;102078.09;4983634;28;20133;-42
2023/09/26 11:27:04;;;;;;;6.07;3.42;;;;;;;22.99;50.72;102069.81;4988219;28;20131;-42